createdAt,value
2022-09-28T00:01:16.723Z,86.40
2022-09-28T00:03:46.221Z,86.40
2022-09-28T00:06:16.614Z,86.41
2022-09-28T00:08:44.182Z,85.88
2022-09-28T00:11:14.814Z,85.33
2022-09-28T00:13:43.482Z,85.45
2022-09-28T00:16:17.357Z,85.38
2022-09-28T00:18:45.009Z,85.89
2022-09-28T00:21:19.534Z,85.85
2022-09-28T00:24:04.968Z,85.42
2022-09-28T00:26:33.531Z,85.47
2022-09-28T00:29:01.888Z,85.49
2022-09-28T00:31:33.233Z,85.47
2022-09-28T00:34:01.687Z,85.60
2022-09-28T00:36:31.150Z,86.03
2022-09-28T00:38:59.286Z,85.94
2022-09-28T00:41:27.658Z,86.45
2022-09-28T00:44:26.493Z,86.51
2022-09-28T00:47:01.130Z,86.25
2022-09-28T00:49:38.338Z,86.15
2022-09-28T00:52:07.394Z,86.94
2022-09-28T00:54:35.048Z,86.65
2022-09-28T00:57:03.576Z,86.43
2022-09-28T00:59:33.275Z,86.55
2022-09-28T01:02:02.276Z,86.14
2022-09-28T01:04:30.698Z,85.84
2022-09-28T01:06:58.708Z,85.68
2022-09-28T01:09:27.233Z,86.27
2022-09-28T01:11:54.661Z,86.27
2022-09-28T01:14:25.077Z,86.51
2022-09-28T01:17:35.521Z,86.38
2022-09-28T01:21:02.247Z,86.31
2022-09-28T01:24:01.060Z,86.01
2022-09-28T01:26:44.054Z,87.15
2022-09-28T01:29:37.608Z,86.25
2022-09-28T01:32:37.832Z,86.41
2022-09-28T01:35:19.070Z,86.65
2022-09-28T01:38:10.344Z,86.76
2022-09-28T01:40:38.406Z,86.02
2022-09-28T01:43:15.150Z,86.20
2022-09-28T01:45:51.960Z,86.15
2022-09-28T01:48:44.966Z,86.00
2022-09-28T01:51:42.720Z,85.83
2022-09-28T01:54:26.373Z,86.03
2022-09-28T01:57:11.973Z,86.19
2022-09-28T01:59:49.258Z,85.99
2022-09-28T02:02:24.620Z,85.65
2022-09-28T02:05:01.566Z,85.70
2022-09-28T02:07:44.715Z,85.92
2022-09-28T02:10:20.864Z,85.44
2022-09-28T02:13:36.994Z,85.23
2022-09-28T02:16:15.874Z,85.39
2022-09-28T02:18:44.421Z,85.62
2022-09-28T02:21:27.761Z,85.47
2022-09-28T02:24:02.951Z,86.10
2022-09-28T02:26:37.535Z,86.43
2022-09-28T02:29:04.625Z,86.46
2022-09-28T02:31:31.782Z,86.30
2022-09-28T02:33:59.108Z,86.91
2022-09-28T02:36:28.087Z,88.26
2022-09-28T02:38:57.765Z,88.24
2022-09-28T02:42:02.326Z,86.94
2022-09-28T02:44:50.014Z,86.54
2022-09-28T02:47:28.816Z,87.11
2022-09-28T02:50:40.131Z,88.54
2022-09-28T02:53:29.751Z,87.78
2022-09-28T02:56:30.230Z,86.94
2022-09-28T02:59:31.917Z,86.89
2022-09-28T03:02:13.734Z,86.56
2022-09-28T03:05:16.029Z,86.31
2022-09-28T03:08:06.398Z,86.19
2022-09-28T03:11:00.264Z,85.58
2022-09-28T03:13:28.469Z,86.33
2022-09-28T03:16:14.285Z,88.64
2022-09-28T03:18:41.868Z,90.13
2022-09-28T03:21:12.157Z,88.72
2022-09-28T03:23:40.431Z,88.31
2022-09-28T03:26:10.449Z,87.26
2022-09-28T03:28:37.363Z,89.59
2022-09-28T03:31:04.716Z,88.35
2022-09-28T03:33:31.804Z,88.30
2022-09-28T03:35:58.732Z,88.13
2022-09-28T03:38:26.310Z,88.01
2022-09-28T03:40:59.908Z,87.66
2022-09-28T03:43:29.824Z,87.34
2022-09-28T03:46:00.030Z,87.24
2022-09-28T03:48:32.711Z,87.29
2022-09-28T03:51:08.720Z,87.45
2022-09-28T03:53:36.358Z,87.60
2022-09-28T03:56:11.209Z,87.30
2022-09-28T03:58:39.150Z,87.15
2022-09-28T04:01:16.471Z,87.75
2022-09-28T04:03:45.709Z,89.50
2022-09-28T04:06:13.906Z,89.22
2022-09-28T04:08:42.489Z,89.19
2022-09-28T04:11:09.462Z,88.13
2022-09-28T04:13:36.829Z,88.30
2022-09-28T04:16:04.845Z,87.76
2022-09-28T04:18:34.713Z,87.62
2022-09-28T04:21:18.864Z,88.41
2022-09-28T04:23:51.070Z,87.72
2022-09-28T04:26:25.799Z,87.31
2022-09-28T04:29:11.474Z,86.88
2022-09-28T04:31:51.124Z,87.76
2022-09-28T04:34:22.355Z,88.07
2022-09-28T04:36:49.931Z,87.38
2022-09-28T04:39:18.933Z,87.34
2022-09-28T04:41:49.118Z,87.25
2022-09-28T04:44:16.576Z,87.27
2022-09-28T04:46:45.453Z,87.42
2022-09-28T04:49:36.568Z,87.22
2022-09-28T04:52:17.191Z,86.65
2022-09-28T04:54:45.441Z,87.63
2022-09-28T04:57:12.375Z,87.97
2022-09-28T04:59:39.360Z,88.11
2022-09-28T05:02:06.314Z,87.18
2022-09-28T05:05:26.066Z,86.97
2022-09-28T05:08:27.988Z,86.88
2022-09-28T05:11:04.415Z,86.73
2022-09-28T05:13:41.145Z,87.16
2022-09-28T05:16:09.953Z,87.30
2022-09-28T05:18:56.858Z,87.29
2022-09-28T05:21:25.844Z,89.09
2022-09-28T05:23:55.559Z,89.35
2022-09-28T05:26:23.549Z,88.81
2022-09-28T05:28:50.648Z,88.87
2022-09-28T05:31:36.294Z,88.60
2022-09-28T05:34:27.725Z,87.74
2022-09-28T05:36:54.961Z,87.23
2022-09-28T05:39:21.960Z,86.88
2022-09-28T05:41:48.944Z,86.58
2022-09-28T05:44:15.857Z,86.90
2022-09-28T05:46:43.174Z,86.34
2022-09-28T05:49:10.752Z,86.27
2022-09-28T05:51:38.748Z,86.41
2022-09-28T05:54:06.423Z,86.61
2022-09-28T05:56:35.966Z,86.57
2022-09-28T05:59:05.689Z,86.47
2022-09-28T06:01:32.696Z,86.65
2022-09-28T06:04:00.642Z,86.71
2022-09-28T06:06:27.617Z,86.75
2022-09-28T06:08:55.621Z,86.86
2022-09-28T06:11:36.408Z,87.23
2022-09-28T06:14:09.423Z,87.10
2022-09-28T06:16:39.326Z,87.93
2022-09-28T06:19:11.373Z,88.14
2022-09-28T06:21:59.175Z,89.27
2022-09-28T06:24:26.521Z,88.23
2022-09-28T06:26:53.562Z,88.25
2022-09-28T06:29:21.339Z,88.00
2022-09-28T06:31:48.316Z,87.91
2022-09-28T06:34:15.464Z,87.89
2022-09-28T06:36:44.136Z,86.98
2022-09-28T06:39:11.116Z,86.71
2022-09-28T06:41:38.591Z,87.44
2022-09-28T06:44:14.178Z,87.40
2022-09-28T06:47:32.893Z,85.95
2022-09-28T06:50:34.418Z,84.38
2022-09-28T06:53:41.991Z,84.07
2022-09-28T06:56:10.987Z,83.62
2022-09-28T06:58:37.983Z,84.05
2022-09-28T07:01:05.231Z,82.48
2022-09-28T07:03:55.399Z,81.96
2022-09-28T07:06:47.472Z,81.75
2022-09-28T07:09:35.051Z,80.65
2022-09-28T07:12:24.883Z,81.23
2022-09-28T07:14:57.126Z,80.83
2022-09-28T07:17:25.923Z,79.20
2022-09-28T07:19:58.938Z,79.22
2022-09-28T07:22:41.505Z,79.03
2022-09-28T07:25:12.156Z,79.07
2022-09-28T07:27:44.908Z,79.49
2022-09-28T07:30:55.868Z,79.90
2022-09-28T07:33:41.450Z,80.14
2022-09-28T07:36:18.607Z,79.94
2022-09-28T07:38:45.543Z,79.86
2022-09-28T07:41:13.632Z,80.33
2022-09-28T07:43:45.138Z,80.43
2022-09-28T07:46:12.443Z,80.41
2022-09-28T07:48:45.269Z,80.21
2022-09-28T07:51:33.761Z,80.01
2022-09-28T07:54:51.682Z,80.19
2022-09-28T07:58:02.504Z,79.09
2022-09-28T08:00:49.392Z,78.59
2022-09-28T08:06:12.019Z,76.95
2022-09-28T08:08:44.131Z,77.74
2022-09-28T08:11:16.183Z,76.86
2022-09-28T08:14:24.227Z,76.91
2022-09-28T08:16:54.102Z,75.41
2022-09-28T08:19:57.902Z,74.29
2022-09-28T08:22:25.008Z,73.85
2022-09-28T08:24:54.259Z,72.83
2022-09-28T08:27:21.281Z,70.63
2022-09-28T08:29:48.738Z,70.70
2022-09-28T08:33:17.430Z,71.65
2022-09-28T08:35:47.683Z,71.42
2022-09-28T08:38:21.364Z,71.22
2022-09-28T08:41:11.432Z,71.35
2022-09-28T08:44:53.083Z,70.06
2022-09-28T08:48:13.191Z,70.36
2022-09-28T08:51:15.055Z,70.03
2022-09-28T08:54:24.970Z,66.79
2022-09-28T08:57:25.610Z,66.15
2022-09-28T08:59:59.240Z,64.63
2022-09-28T09:02:39.119Z,64.33
2022-09-28T09:05:20.547Z,63.50
2022-09-28T09:08:46.534Z,64.03
2022-09-28T09:11:26.983Z,61.17
2022-09-28T09:15:06.983Z,59.40
2022-09-28T09:17:40.211Z,59.87
2022-09-28T09:20:49.962Z,56.80
2022-09-28T09:24:27.004Z,56.46
2022-09-28T09:27:18.302Z,55.77
2022-09-28T09:30:11.024Z,55.87
2022-09-28T09:33:04.917Z,56.05
2022-09-28T09:35:47.443Z,53.53
2022-09-28T09:38:27.229Z,53.42
2022-09-28T09:42:15.510Z,52.57
2022-09-28T09:45:30.729Z,51.34
2022-09-28T09:49:03.904Z,52.06
2022-09-28T09:52:06.074Z,52.22
2022-09-28T09:54:42.434Z,52.14
2022-09-28T09:57:35.394Z,52.30
2022-09-28T10:00:15.975Z,50.85
2022-09-28T10:02:50.312Z,50.86
2022-09-28T10:05:33.039Z,52.47
2022-09-28T10:08:11.436Z,49.42
2022-09-28T10:10:52.490Z,48.75
2022-09-28T10:13:20.558Z,49.19
2022-09-28T10:15:48.497Z,49.37
2022-09-28T10:18:20.940Z,50.23
2022-09-28T10:21:06.552Z,48.20
2022-09-28T10:24:30.948Z,48.79
2022-09-28T10:27:05.745Z,49.18
2022-09-28T10:29:49.145Z,47.57
2022-09-28T10:32:23.892Z,48.54
2022-09-28T10:35:11.534Z,45.78
2022-09-28T10:37:58.753Z,45.80
2022-09-28T10:41:09.083Z,45.72
2022-09-28T10:44:05.967Z,45.89
2022-09-28T10:47:30.866Z,45.52
2022-09-28T10:49:59.303Z,44.18
2022-09-28T10:52:39.358Z,44.05
2022-09-28T10:55:23.738Z,44.11
2022-09-28T10:57:50.737Z,44.72
2022-09-28T11:00:42.751Z,44.13
2022-09-28T11:03:32.043Z,42.39
2022-09-28T11:06:07.756Z,42.91
2022-09-28T11:08:42.198Z,43.92
2022-09-28T11:11:19.497Z,44.03
2022-09-28T11:13:55.609Z,44.53
2022-09-28T11:16:34.190Z,45.10
2022-09-28T11:19:30.760Z,45.26
2022-09-28T11:21:58.296Z,45.75
2022-09-28T11:24:32.486Z,45.63
2022-09-28T11:27:02.296Z,45.87
2022-09-28T11:29:50.644Z,44.90
2022-09-28T11:33:03.485Z,45.72
2022-09-28T11:37:00.878Z,46.28
2022-09-28T11:39:52.592Z,46.37
2022-09-28T11:43:07.650Z,46.23
2022-09-28T11:45:44.601Z,45.28
2022-09-28T11:48:16.824Z,45.96
2022-09-28T11:51:05.764Z,46.15
2022-09-28T11:53:52.298Z,46.78
2022-09-28T11:56:41.431Z,45.77
2022-09-28T11:59:13.801Z,47.61
2022-09-28T12:01:50.940Z,44.89
2022-09-28T12:04:42.094Z,46.24
2022-09-28T12:07:34.639Z,45.77
2022-09-28T12:10:19.109Z,45.72
2022-09-28T12:12:53.051Z,45.07
2022-09-28T12:16:15.085Z,46.13
2022-09-28T12:19:12.541Z,44.70
2022-09-28T12:21:55.028Z,44.64
2022-09-28T12:24:56.078Z,44.38
2022-09-28T12:27:50.490Z,42.40
2022-09-28T12:30:26.166Z,40.60
2022-09-28T12:33:18.022Z,40.48
2022-09-28T12:35:56.451Z,39.97
2022-09-28T12:38:54.148Z,38.85
2022-09-28T12:42:08.105Z,36.45
2022-09-28T12:45:08.576Z,36.15
2022-09-28T12:48:15.909Z,34.35
2022-09-28T12:51:07.348Z,31.73
2022-09-28T12:54:00.968Z,32.92
2022-09-28T12:56:40.581Z,33.93
2022-09-28T12:59:39.248Z,32.80
2022-09-28T13:02:40.579Z,33.69
2022-09-28T13:05:43.750Z,33.84
2022-09-28T13:09:04.164Z,34.29
2022-09-28T13:12:18.588Z,36.28
2022-09-28T13:15:05.291Z,37.43
2022-09-28T13:17:52.383Z,37.92
2022-09-28T13:21:05.409Z,39.08
2022-09-28T13:23:42.714Z,39.91
2022-09-28T13:26:44.288Z,42.53
2022-09-28T13:29:20.181Z,43.20
2022-09-28T13:31:59.553Z,41.65
2022-09-28T13:34:34.706Z,41.64
2022-09-28T13:37:13.937Z,42.24
2022-09-28T13:39:43.652Z,43.19
2022-09-28T13:42:32.032Z,43.24
2022-09-28T13:45:20.428Z,43.75
2022-09-28T13:48:11.027Z,44.91
2022-09-28T13:51:26.640Z,44.70
2022-09-28T13:54:15.923Z,44.52
2022-09-28T13:57:17.888Z,45.09
2022-09-28T14:00:04.171Z,45.79
2022-09-28T14:03:01.252Z,45.51
2022-09-28T14:06:05.746Z,46.12
2022-09-28T14:09:20.301Z,46.67
2022-09-28T14:12:02.417Z,46.40
2022-09-28T14:14:51.147Z,46.91
2022-09-28T14:17:20.979Z,46.98
2022-09-28T14:19:59.092Z,47.48
2022-09-28T14:22:43.257Z,48.43
2022-09-28T14:25:44.575Z,47.90
2022-09-28T14:28:48.838Z,44.09
2022-09-28T14:31:27.194Z,42.72
2022-09-28T14:34:01.298Z,41.40
2022-09-28T14:36:59.066Z,43.60
2022-09-28T14:39:50.210Z,43.32
2022-09-28T14:42:22.330Z,42.05
2022-09-28T14:45:07.329Z,40.29
2022-09-28T14:47:41.506Z,38.90
2022-09-28T14:50:29.211Z,34.83
2022-09-28T14:53:11.699Z,35.18
2022-09-28T14:55:54.868Z,35.31
2022-09-28T14:58:29.152Z,32.54
2022-09-28T15:01:13.922Z,31.90
2022-09-28T15:03:43.355Z,31.82
2022-09-28T15:06:16.484Z,32.70
2022-09-28T15:08:43.695Z,34.26
2022-09-28T15:11:19.465Z,35.15
2022-09-28T15:13:46.495Z,36.62
2022-09-28T15:16:17.025Z,36.86
2022-09-28T15:19:29.021Z,37.71
2022-09-28T15:21:55.976Z,39.12
2022-09-28T15:24:34.184Z,39.16
2022-09-28T15:27:15.670Z,39.57
2022-09-28T15:29:58.998Z,41.14
2022-09-28T15:32:28.974Z,40.92
2022-09-28T15:34:56.536Z,41.70
2022-09-28T15:37:32.095Z,42.49
2022-09-28T15:40:01.135Z,44.04
2022-09-28T15:42:36.109Z,43.97
2022-09-28T15:45:28.086Z,43.91
2022-09-28T15:48:27.085Z,44.73
2022-09-28T15:51:05.599Z,45.95
2022-09-28T15:53:33.264Z,48.14
2022-09-28T15:56:09.426Z,49.57
2022-09-28T15:58:38.621Z,52.29
2022-09-28T16:01:36.581Z,52.26
2022-09-28T16:04:36.928Z,54.25
2022-09-28T16:07:12.787Z,56.41
2022-09-28T16:10:00.976Z,56.14
2022-09-28T16:13:13.025Z,58.08
2022-09-28T16:15:40.015Z,58.92
2022-09-28T16:18:19.818Z,58.95
2022-09-28T16:20:50.821Z,58.55
2022-09-28T16:23:30.519Z,59.77
2022-09-28T16:25:58.412Z,60.18
2022-09-28T16:28:28.829Z,59.36
2022-09-28T16:31:26.852Z,61.38
2022-09-28T16:34:19.524Z,62.87
2022-09-28T16:36:49.216Z,62.94
2022-09-28T16:39:18.510Z,62.49
2022-09-28T16:41:55.765Z,63.13
2022-09-28T16:44:33.992Z,62.96
2022-09-28T16:47:01.204Z,64.44
2022-09-28T16:49:31.145Z,65.85
2022-09-28T16:51:59.126Z,65.33
2022-09-28T16:54:44.954Z,67.31
2022-09-28T16:57:14.772Z,65.94
2022-09-28T16:59:42.115Z,69.02
2022-09-28T17:05:13.164Z,68.65
2022-09-28T17:07:40.483Z,68.57
2022-09-28T17:10:50.081Z,70.49
2022-09-28T17:13:35.673Z,69.55
2022-09-28T17:16:08.355Z,68.59
2022-09-28T17:18:38.557Z,68.62
2022-09-28T17:21:11.762Z,70.01
2022-09-28T17:23:38.947Z,69.35
2022-09-28T17:26:06.492Z,68.64
2022-09-28T17:28:36.089Z,68.52
2022-09-28T17:31:04.402Z,69.81
2022-09-28T17:33:31.758Z,69.49
2022-09-28T17:36:04.285Z,69.85
2022-09-28T17:38:32.041Z,69.83
2022-09-28T17:40:59.375Z,70.22
2022-09-28T17:43:27.236Z,71.86
2022-09-28T17:45:54.497Z,71.11
2022-09-28T17:48:23.791Z,71.61
2022-09-28T17:50:51.350Z,71.54
2022-09-28T17:53:19.290Z,71.25
2022-09-28T17:55:46.543Z,72.44
2022-09-28T17:58:22.089Z,75.75
2022-09-28T18:00:51.466Z,74.87
2022-09-28T18:03:23.742Z,73.06
2022-09-28T18:06:07.283Z,72.89
2022-09-28T18:08:36.323Z,72.81
2022-09-28T18:11:04.098Z,72.80
2022-09-28T18:13:31.486Z,72.73
2022-09-28T18:15:58.906Z,72.83
2022-09-28T18:18:26.522Z,73.23
2022-09-28T18:20:53.880Z,72.69
2022-09-28T18:23:21.355Z,72.75
2022-09-28T18:25:48.793Z,72.70
2022-09-28T18:28:16.048Z,73.03
2022-09-28T18:30:45.008Z,73.27
2022-09-28T18:33:13.979Z,73.57
2022-09-28T18:35:49.435Z,73.89
2022-09-28T18:38:17.289Z,73.37
2022-09-28T18:40:44.932Z,73.82
2022-09-28T18:43:12.291Z,73.99
2022-09-28T18:45:40.052Z,73.56
2022-09-28T18:48:07.585Z,73.64
2022-09-28T18:50:35.149Z,73.33
2022-09-28T18:53:11.952Z,72.70
2022-09-28T18:55:44.052Z,72.48
2022-09-28T18:58:12.236Z,72.58
2022-09-28T19:00:41.739Z,73.73
2022-09-28T19:03:11.559Z,73.99
2022-09-28T19:05:43.715Z,74.11
2022-09-28T19:08:11.214Z,74.32
2022-09-28T19:10:38.392Z,75.15
2022-09-28T19:13:05.734Z,74.95
2022-09-28T19:15:34.068Z,75.16
2022-09-28T19:18:01.571Z,74.85
2022-09-28T19:20:28.723Z,75.13
2022-09-28T19:22:56.684Z,75.10
2022-09-28T19:25:23.961Z,75.78
2022-09-28T19:27:51.396Z,76.34
2022-09-28T19:30:18.511Z,76.62
2022-09-28T19:32:45.784Z,76.30
2022-09-28T19:35:13.140Z,76.45
2022-09-28T19:37:40.406Z,76.69
2022-09-28T19:40:08.403Z,76.83
2022-09-28T19:42:35.773Z,77.48
2022-09-28T19:45:06.969Z,77.28
2022-09-28T19:47:36.010Z,77.22
2022-09-28T19:50:03.473Z,77.22
2022-09-28T19:52:30.799Z,77.86
2022-09-28T19:54:58.712Z,78.40
2022-09-28T19:57:32.165Z,78.45
2022-09-28T20:00:05.709Z,78.34
2022-09-28T20:02:34.494Z,78.78
2022-09-28T20:05:01.936Z,79.77
2022-09-28T20:07:32.443Z,79.99
2022-09-28T20:09:59.797Z,79.68
2022-09-28T20:12:27.125Z,80.01
2022-09-28T20:14:54.357Z,79.99
2022-09-28T20:17:21.707Z,79.66
2022-09-28T20:19:51.153Z,79.50
2022-09-28T20:22:19.594Z,80.20
2022-09-28T20:24:46.822Z,79.84
2022-09-28T20:27:14.874Z,79.82
2022-09-28T20:29:42.686Z,80.03
2022-09-28T20:32:11.213Z,81.47
2022-09-28T20:34:38.263Z,80.80
2022-09-28T20:37:05.528Z,80.87
2022-09-28T20:39:34.008Z,81.15
2022-09-28T20:42:01.146Z,81.50
2022-09-28T20:44:28.424Z,81.59
2022-09-28T20:46:56.267Z,81.96
2022-09-28T20:49:23.836Z,81.95
2022-09-28T20:51:51.078Z,81.88
2022-09-28T20:54:18.377Z,81.73
2022-09-28T20:56:47.759Z,81.97
2022-09-28T20:59:15.383Z,82.27
2022-09-28T21:01:42.774Z,82.47
2022-09-28T21:04:10.682Z,82.17
2022-09-28T21:06:40.634Z,81.93
2022-09-28T21:09:10.082Z,82.03
2022-09-28T21:11:38.960Z,82.76
2022-09-28T21:14:08.154Z,82.75
2022-09-28T21:16:35.516Z,82.45
2022-09-28T21:19:03.779Z,83.73
2022-09-28T21:21:31.699Z,83.08
2022-09-28T21:23:59.273Z,83.63
2022-09-28T21:26:28.965Z,83.23
2022-09-28T21:29:07.263Z,83.44
2022-09-28T21:31:39.961Z,83.57
2022-09-28T21:34:12.946Z,84.17
2022-09-28T21:36:43.331Z,83.83
2022-09-28T21:39:10.747Z,83.13
2022-09-28T21:41:38.458Z,83.70
2022-09-28T21:44:06.646Z,83.02
2022-09-28T21:46:35.887Z,83.19
2022-09-28T21:49:07.108Z,83.29
2022-09-28T21:51:35.975Z,83.27
2022-09-28T21:54:03.499Z,83.39
2022-09-28T21:56:31.291Z,83.71
2022-09-28T21:58:58.601Z,83.66
2022-09-28T22:01:25.902Z,83.82
2022-09-28T22:03:56.277Z,83.91
2022-09-28T22:06:29.342Z,83.87
2022-09-28T22:08:59.157Z,84.05
2022-09-28T22:11:28.401Z,84.21
2022-09-28T22:13:59.271Z,84.08
2022-09-28T22:16:32.950Z,83.91
2022-09-28T22:19:00.021Z,83.95
2022-09-28T22:21:32.913Z,83.67
2022-09-28T22:24:06.665Z,84.24
2022-09-28T22:26:39.838Z,84.69
2022-09-28T22:29:09.590Z,84.54
2022-09-28T22:31:40.946Z,86.21
2022-09-28T22:34:08.927Z,84.86
2022-09-28T22:36:36.374Z,85.25
2022-09-28T22:39:04.245Z,85.93
2022-09-28T22:41:31.877Z,85.45
2022-09-28T22:43:59.412Z,85.98
2022-09-28T22:46:31.987Z,86.13
2022-09-28T22:49:02.598Z,86.05
2022-09-28T22:51:30.835Z,84.93
2022-09-28T22:53:59.047Z,87.70
2022-09-28T22:56:26.766Z,86.02
2022-09-28T22:58:54.227Z,85.42
2022-09-28T23:01:30.113Z,85.56
2022-09-28T23:03:58.238Z,86.04
2022-09-28T23:06:29.824Z,86.00
2022-09-28T23:08:57.418Z,88.56
2022-09-28T23:11:24.929Z,90.20
2022-09-28T23:13:55.728Z,87.46
2022-09-28T23:16:26.753Z,87.34
2022-09-28T23:18:55.255Z,87.08
2022-09-28T23:21:26.104Z,87.62
2022-09-28T23:24:02.895Z,87.09
2022-09-28T23:26:33.844Z,86.59
2022-09-28T23:29:01.140Z,86.59
2022-09-28T23:31:32.579Z,86.37
2022-09-28T23:34:05.961Z,86.26
2022-09-28T23:36:34.031Z,85.98
2022-09-28T23:39:01.545Z,86.18
2022-09-28T23:41:28.973Z,87.39
2022-09-28T23:43:56.114Z,86.77
2022-09-28T23:46:23.870Z,85.92
2022-09-28T23:48:51.204Z,85.45
2022-09-28T23:51:18.542Z,85.70
2022-09-28T23:53:46.386Z,85.26
2022-09-28T23:56:14.128Z,86.22
2022-09-28T23:58:41.337Z,86.17
